Stations météo

Publicité
Drumnadrochit, Grande-Bretagne (99132): Température de l'air & dewpoint: 08.11.2018 09:00:00 - 14.11.2018 09:00:00 (GMT)Drumnadrochit, Grande-Bretagne (99132): Quantités de précipitations: 08.11.2018 09:00:00 - 14.11.2018 09:00:00 (GMT)
Date & Time tt [°C] td [°C] rr [mm]
14.11.2018 09:00:00 9,0 8,6 0,0
14.11.2018 08:00:00 9,1 8,4 0,0
14.11.2018 07:00:00 9,5 8,7 0,0
14.11.2018 06:00:00 8,9 7,9 0,0
14.11.2018 05:00:00 9,0 7,5 0,0
14.11.2018 04:00:00 10,7 8,3 0,0
14.11.2018 03:00:00 10,8 7,6 0,0
14.11.2018 02:00:00 11,1 7,4 0,0
14.11.2018 01:00:00 10,2 7,4 0,0
14.11.2018 00:00:00 10,9 7,0 0,0
13.11.2018 23:00:00 10,1 6,6 0,0
13.11.2018 22:00:00 10,0 5,6 0,0
13.11.2018 21:00:00 8,9 4,5 0,0
13.11.2018 20:00:00 8,2 4,5 0,0
13.11.2018 19:00:00 9,0 4,7 0,0
13.11.2018 18:00:00 8,9 5,6 0,0
13.11.2018 17:00:00 8,8 6,7 0,0
13.11.2018 16:00:00 5,8 2,9 0,0
13.11.2018 15:00:00 10,1 4,7 0,0
13.11.2018 14:00:00 10,9 4,8 0,0
13.11.2018 13:00:00 11,5 5,8 0,0
13.11.2018 12:00:00 11,1 6,9 0,0
13.11.2018 11:00:00 7,7 7,7 0,0
13.11.2018 10:00:00 5,7 5,7 0,0
13.11.2018 09:00:00 4,0 4,0 0,0
13.11.2018 08:00:00 1,9 1,8 0,0
13.11.2018 07:00:00 2,9 2,9 0,0
13.11.2018 06:00:00 4,0 4,0 0,0
13.11.2018 05:00:00 3,3 3,3 0,0
13.11.2018 04:00:00 2,7 2,7 0,0
13.11.2018 03:00:00 2,0 1,9 0,0
13.11.2018 02:00:00 2,4 2,1 0,0
13.11.2018 01:00:00 2,8 2,8 0,0
13.11.2018 00:00:00 2,1 1,9 0,0
12.11.2018 23:00:00 2,5 2,3 0,0
12.11.2018 22:00:00 4,0 3,8 0,2
12.11.2018 21:00:00 3,9 3,7 0,0
12.11.2018 20:00:00 4,4 4,2 0,0
12.11.2018 19:00:00 5,0 4,5 0,0
12.11.2018 18:00:00 6,2 5,6 0,0
12.11.2018 17:00:00 8,7 6,1 0,0
12.11.2018 16:00:00 7,5 6,6 0,0
12.11.2018 15:00:00 9,6 7,4 0,0
12.11.2018 14:00:00 10,2 8,4 0,0
12.11.2018 13:00:00 9,9 9,8 0,0
12.11.2018 12:00:00 8,2 8,2 0,0
12.11.2018 11:00:00 7,0 6,9 0,0
12.11.2018 10:00:00 5,3 5,3 0,0
12.11.2018 09:00:00 2,6 2,6 0,0
12.11.2018 08:00:00 1,9 1,9 0,0
12.11.2018 07:00:00 2,4 2,4 0,0
12.11.2018 06:00:00 2,4 2,4 0,0
12.11.2018 05:00:00 2,4 2,4 0,0
12.11.2018 04:00:00 1,7 1,7 0,0
12.11.2018 03:00:00 1,3 1,3 0,0
12.11.2018 02:00:00 1,2 1,2 0,2
12.11.2018 01:00:00 1,8 1,8 0,0
12.11.2018 00:00:00 1,2 1,2 0,0
11.11.2018 23:00:00 1,0 1,0 0,0
11.11.2018 22:00:00 - - 0,0
11.11.2018 21:00:00 - - 0,0
11.11.2018 20:00:00 - - 0,0
11.11.2018 19:00:00 - - 0,0
11.11.2018 18:00:00 - - 0,0
11.11.2018 17:00:00 - - 0,0
11.11.2018 16:00:00 - - 0,0
11.11.2018 15:00:00 - - 0,0
11.11.2018 14:00:00 - - 0,0
11.11.2018 13:00:00 - - 0,0
11.11.2018 12:00:00 - - 0,0
11.11.2018 11:00:00 - - 0,0
11.11.2018 10:00:00 - - 0,0
11.11.2018 09:00:00 - - 0,0
11.11.2018 08:00:00 - - 0,0
11.11.2018 07:00:00 - - 0,0
11.11.2018 06:00:00 - - 0,0
11.11.2018 05:00:00 - - 0,0
11.11.2018 04:00:00 - - 0,0
11.11.2018 03:00:00 - - 0,0
11.11.2018 02:00:00 - - 0,0
11.11.2018 01:00:00 - - 0,0
11.11.2018 00:00:00 - - 0,0
10.11.2018 23:00:00 - - 0,0
10.11.2018 22:00:00 - - 0,0
10.11.2018 21:00:00 - - 0,0
10.11.2018 20:00:00 - - 0,0
10.11.2018 19:00:00 - - 0,0
10.11.2018 18:00:00 - - 0,0
10.11.2018 17:00:00 - - 0,0
10.11.2018 16:00:00 - - 0,0
10.11.2018 15:00:00 - - 0,0
10.11.2018 14:00:00 - - 0,0
10.11.2018 13:00:00 - - 0,0
10.11.2018 12:00:00 - - 0,0
10.11.2018 11:00:00 - - 0,0
10.11.2018 10:00:00 - - 0,0
10.11.2018 09:00:00 - - 0,0
10.11.2018 08:00:00 - - 0,0
10.11.2018 07:00:00 - - 0,0
10.11.2018 06:00:00 - - 0,0
10.11.2018 05:00:00 - - 0,0
10.11.2018 04:00:00 - - 0,0
10.11.2018 03:00:00 - - 0,0
10.11.2018 02:00:00 - - 0,0
10.11.2018 01:00:00 - - 0,0
10.11.2018 00:00:00 - - 0,0
09.11.2018 23:00:00 - - 0,0
09.11.2018 22:00:00 - - 0,0
09.11.2018 21:00:00 - - 0,0
09.11.2018 20:00:00 - - 0,0
09.11.2018 19:00:00 - - 0,0
09.11.2018 18:00:00 - - 0,0
09.11.2018 17:00:00 - - 0,0
09.11.2018 16:00:00 - - 0,0
09.11.2018 15:00:00 10,4 4,9 0,0
09.11.2018 14:00:00 9,7 5,4 0,0
09.11.2018 13:00:00 10,0 5,2 0,0
09.11.2018 12:00:00 10,5 5,2 0,0
09.11.2018 11:00:00 10,4 5,2 0,0
09.11.2018 10:00:00 10,5 5,3 0,0
09.11.2018 09:00:00 9,2 4,7 0,0
09.11.2018 08:00:00 8,7 4,4 0,0
09.11.2018 07:00:00 9,0 4,3 0,0
09.11.2018 06:00:00 9,3 4,4 0,0
09.11.2018 05:00:00 8,7 5,0 0,2
09.11.2018 04:00:00 8,6 5,8 0,4
09.11.2018 03:00:00 7,1 6,2 1,0
09.11.2018 02:00:00 8,3 6,5 0,8
09.11.2018 01:00:00 8,1 6,1 0,0
09.11.2018 00:00:00 7,3 4,6 0,0
08.11.2018 23:00:00 8,4 4,2 0,0
08.11.2018 22:00:00 8,1 3,7 0,0
08.11.2018 21:00:00 8,7 4,0 0,0
08.11.2018 20:00:00 9,0 3,9 0,0
08.11.2018 19:00:00 9,2 4,4 0,0
08.11.2018 18:00:00 4,3 2,8 0,0
08.11.2018 17:00:00 5,2 3,2 0,0
08.11.2018 16:00:00 6,6 3,6 0,0
08.11.2018 15:00:00 9,1 3,0 0,0
08.11.2018 14:00:00 11,0 2,9 0,0
08.11.2018 13:00:00 9,6 3,9 0,0
08.11.2018 12:00:00 7,9 3,4 -
08.11.2018 11:00:00 6,9 2,6 0,0
08.11.2018 10:00:00 5,7 3,3 0,0
08.11.2018 09:00:00 0,3 0,2 0,0

tt = Température de l'air
td = dewpoint
rr = Quantités de précipitations

stations d'obs. à proximité